Elissa — WDD9058 — position and weather

sailwx.info

Track history (hours):
 
Tides and Currents Weather Stations Pressure Air Temp Water Temp Dewpoint Dewpoint Depression Visibility Wind Speed Wind Dir Waves Ship Positions

Elissa

Owner: Ingram Barge Company, Nashville, TN. More information available from US FCC via Universal Licensing System and Coast Guard Vessel Documentation Center.

Last reported at 2017-May-09 05:48 UTC. Time now 2017-May-25 05:01 UTC.
Position N 29°56' W 090°22'.
Warning: this ship's position is 15 days out of date.

Length 26 m; draft 3.6 m.

Type: Towing. MMSI: 367306290.

Date/timePositionNaut miles runAvg speedWind from/ knotsBaromVisibWave heightAir tempDewpointWater temp
2017-May-09 05:48N 29°56' W 090°22'2 4.2
2017-May-09 05:24N 29°56' W 090°20'  
2017-May-03 12:23N 29°56' W 090°22'10 4.3
2017-May-03 09:56N 29°56' W 090°10'1 1.6
2017-May-03 09:27N 29°57' W 090°10'0 0.6
2017-May-03 09:00N 29°57' W 090°10'0 0.0
2017-May-03 08:30N 29°57' W 090°10'0 0.0
2017-May-03 08:00N 29°57' W 090°10'0 0.0
2017-May-03 07:30N 29°57' W 090°10'0 0.0
2017-May-03 07:00N 29°57' W 090°10'0 0.0
2017-May-03 06:30N 29°57' W 090°10'29 0.6
2017-May-01 09:24N 30°01' W 090°43'2 5.1
2017-May-01 09:00N 30°02' W 090°41'3 4.4
2017-May-01 08:19N 30°02' W 090°38'1 4.5
2017-May-01 08:00N 30°03' W 090°36'3 4.9
2017-May-01 07:24N 30°03' W 090°33'  
Track history (hours):
 
Tides and Currents Weather Stations Pressure Air Temp Water Temp Dewpoint Dewpoint Depression Visibility Wind Speed Wind Dir Waves Ship Positions

Elissa

Owner: Ingram Barge Company, Nashville, TN. More information available from US FCC via Universal Licensing System and Coast Guard Vessel Documentation Center.

Last reported at 2017-May-09 05:48 UTC. Time now 2017-May-25 05:01 UTC.
Position N 29°56' W 090°22'.
Warning: this ship's position is 15 days out of date.

Length 26 m; draft 3.6 m.

Type: Towing. MMSI: 367306290.

Date/timePositionNaut miles runAvg speedWind from/ knotsBaromVisibWave heightAir tempDewpointWater temp
2017-May-09 05:48N 29°56' W 090°22'2 4.2
2017-May-09 05:24N 29°56' W 090°20'  
2017-May-03 12:23N 29°56' W 090°22'10 4.3
2017-May-03 09:56N 29°56' W 090°10'1 1.6
2017-May-03 09:27N 29°57' W 090°10'0 0.6
2017-May-03 09:00N 29°57' W 090°10'0 0.0
2017-May-03 08:30N 29°57' W 090°10'0 0.0
2017-May-03 08:00N 29°57' W 090°10'0 0.0
2017-May-03 07:30N 29°57' W 090°10'0 0.0
2017-May-03 07:00N 29°57' W 090°10'0 0.0
2017-May-03 06:30N 29°57' W 090°10'29 0.6
2017-May-01 09:24N 30°01' W 090°43'2 5.1
2017-May-01 09:00N 30°02' W 090°41'3 4.4
2017-May-01 08:19N 30°02' W 090°38'1 4.5
2017-May-01 08:00N 30°03' W 090°36'3 4.9
2017-May-01 07:24N 30°03' W 090°33'  

Dump ship's entire track history